Time;durP1;ratioP1;P1;durP2;ratioP2;P2;SDS_P1;SDS_P2;PMS_P1;PMS_P2;Temp;Humidity;BMP_temperature;BMP_pressure;BME280_temperature;BME280_humidity;BME280_pressure;Samples;Min_cycle;Max_cycle;Signal;HPM_P1;HPM_P2
2021/01/02 00:01:21;;;;;;;2.15;1.95;;;;;;;4.12;76.70;100300.44;4860520;29;20030;-74
2021/01/02 00:04:11;;;;;;;1.52;1.45;;;;;;;4.24;76.95;100311.34;4871658;29;20033;-75
2021/01/02 00:06:45;;;;;;;1.80;1.70;;;;;;;4.25;76.15;100308.41;4881542;29;20365;-75
2021/01/02 00:09:15;;;;;;;2.47;2.33;;;;;;;4.27;76.18;100313.59;4864076;29;20101;-74
2021/01/02 00:12:02;;;;;;;2.58;2.33;;;;;;;4.30;76.19;100311.22;4867712;29;20496;-76
2021/01/02 00:14:38;;;;;;;3.25;2.25;;;;;;;4.31;76.12;100309.38;4879905;29;20025;-75
2021/01/02 00:17:47;;;;;;;2.03;1.92;;;;;;;4.32;76.26;100306.44;4859916;29;20029;-74
2021/01/02 00:20:42;;;;;;;1.88;1.77;;;;;;;4.37;75.98;100311.16;4859653;29;20149;-77
2021/01/02 00:23:21;;;;;;;3.63;2.78;;;;;;;4.35;75.67;100305.13;4857287;29;20449;-76
2021/01/02 00:25:55;;;;;;;3.50;2.00;;;;;;;4.35;75.71;100314.09;4871072;29;20475;-75
2021/01/02 00:28:29;;;;;;;2.33;2.13;;;;;;;4.34;76.45;100309.72;4851883;29;20029;-74
2021/01/02 00:31:09;;;;;;;1.77;1.67;;;;;;;4.40;76.44;100320.72;4858917;29;20040;-75
2021/01/02 00:33:49;;;;;;;2.67;2.35;;;;;;;4.42;75.72;100327.53;4864233;29;20496;-75
2021/01/02 00:36:24;;;;;;;1.98;1.88;;;;;;;4.41;76.14;100323.19;4854958;29;20032;-75
2021/01/02 00:38:50;;;;;;;1.90;1.65;;;;;;;4.41;76.21;100320.50;4856176;29;20056;-74
2021/01/02 00:41:17;;;;;;;3.90;2.40;;;;;;;4.42;75.97;100315.88;4840913;29;21346;-76
2021/01/02 00:43:45;;;;;;;2.35;2.25;;;;;;;4.40;75.89;100318.00;4856182;29;20041;-76
2021/01/02 00:46:11;;;;;;;2.33;2.10;;;;;;;4.35;75.90;100314.09;4852867;29;20084;-76
2021/01/02 00:48:39;;;;;;;2.22;2.13;;;;;;;4.34;75.91;100312.44;4813916;29;20500;-76
2021/01/02 00:51:04;;;;;;;2.40;2.20;;;;;;;4.31;75.39;100318.31;4861336;29;20097;-75
2021/01/02 00:53:42;;;;;;;1.45;1.33;;;;;;;4.30;76.20;100319.34;4859282;29;20104;-74
2021/01/02 00:56:29;;;;;;;5.35;2.53;;;;;;;4.30;75.58;100322.06;4868002;29;20048;-76
2021/01/02 00:59:12;;;;;;;1.60;1.50;;;;;;;4.30;75.99;100327.47;4864981;29;20036;-75
2021/01/02 01:02:01;;;;;;;1.42;1.35;;;;;;;4.29;75.80;100333.97;4860967;29;20052;-78
2021/01/02 01:04:49;;;;;;;1.45;1.35;;;;;;;4.31;76.08;100321.00;4858127;29;20056;-76
2021/01/02 01:07:18;;;;;;;1.25;1.15;;;;;;;4.38;75.62;100329.06;4852578;29;20029;-76
2021/01/02 01:09:50;;;;;;;5.15;2.08;;;;;;;4.42;75.20;100332.13;4855776;29;20033;-76
2021/01/02 01:12:22;;;;;;;1.33;1.23;;;;;;;4.41;76.02;100333.19;4858788;29;20388;-77
2021/01/02 01:14:47;;;;;;;1.40;1.40;;;;;;;4.47;75.80;100337.72;4865276;29;20037;-75
2021/01/02 01:17:19;;;;;;;2.67;1.77;;;;;;;4.51;75.89;100338.88;4859299;29;20448;-75
2021/01/02 01:19:51;;;;;;;1.67;1.35;;;;;;;4.51;75.73;100338.88;4857199;29;20124;-76
2021/01/02 01:22:30;;;;;;;1.50;1.40;;;;;;;4.52;75.31;100330.53;4859713;29;20501;-76
2021/01/02 01:25:06;;;;;;;2.65;1.55;;;;;;;4.55;75.64;100343.59;4869292;29;20396;-75
2021/01/02 01:27:50;;;;;;;;;;;;;;;4.57;75.28;100346.13;4837815;29;20124;-76
2021/01/02 01:30:21;;;;;;;1.70;1.60;;;;;;;4.53;75.50;100355.75;4853754;29;19919;-76
2021/01/02 01:33:09;;;;;;;0.77;0.77;;;;;;;4.52;75.82;100343.25;4849329;29;20116;-76
2021/01/02 01:35:42;;;;;;;0.88;0.88;;;;;;;4.51;75.07;100342.44;4849293;29;20034;-77
2021/01/02 01:38:14;;;;;;;1.17;1.10;;;;;;;4.52;75.05;100344.06;4849047;29;20502;-76
2021/01/02 01:40:43;;;;;;;1.23;1.13;;;;;;;4.54;75.02;100351.97;4857972;29;20038;-76
2021/01/02 01:43:20;;;;;;;1.17;1.08;;;;;;;4.53;75.78;100344.91;4851260;29;20029;-76
2021/01/02 01:46:08;;;;;;;1.50;1.33;;;;;;;4.56;75.12;100344.44;4850599;29;20393;-77
2021/01/02 01:48:54;;;;;;;5.28;1.73;;;;;;;4.53;74.96;100344.91;4862043;29;20034;-78
2021/01/02 01:51:29;;;;;;;2.08;1.65;;;;;;;4.54;75.54;100350.09;4851081;29;20073;-77
2021/01/02 01:53:54;;;;;;;1.33;1.15;;;;;;;4.53;75.33;100355.75;4859864;29;20178;-77
2021/01/02 01:56:31;;;;;;;1.42;1.33;;;;;;;4.53;75.25;100350.34;4856457;29;20520;-77
2021/01/02 01:58:59;;;;;;;1.38;0.90;;;;;;;4.53;75.61;100355.75;4856530;29;20030;-78
2021/01/02 02:01:26;;;;;;;2.03;1.92;;;;;;;4.50;75.16;100362.44;4856571;29;20040;-77
2021/01/02 02:04:32;;;;;;;2.53;1.45;;;;;;;4.46;75.06;100365.84;4855938;29;20038;-78
2021/01/02 02:07:01;;;;;;;1.10;1.10;;;;;;;4.42;74.97;100364.63;4873098;29;20029;-78
2021/01/02 02:09:42;;;;;;;1.20;1.10;;;;;;;4.43;75.35;100371.72;4853418;29;20060;-77
2021/01/02 02:12:23;;;;;;;1.88;1.40;;;;;;;4.41;75.06;100368.38;4857915;29;20096;-78
2021/01/02 02:15:08;;;;;;;1.52;1.02;;;;;;;4.40;75.03;100366.75;4862413;29;20033;-77
2021/01/02 02:17:48;;;;;;;1.45;0.93;;;;;;;4.39;75.17;100370.50;4856344;29;20022;-78
2021/01/02 02:20:19;;;;;;;1.10;1.00;;;;;;;4.41;75.50;100368.38;4857207;29;20085;-79
2021/01/02 02:23:01;;;;;;;1.98;1.08;;;;;;;4.36;75.38;100360.94;4855069;29;20045;-79
2021/01/02 02:25:54;;;;;;;3.97;1.13;;;;;;;4.34;75.09;100363.88;4858867;29;20025;-77
2021/01/02 02:28:58;;;;;;;1.73;0.80;;;;;;;4.34;75.16;100365.78;4843754;29;20037;-76
2021/01/02 02:31:24;;;;;;;3.17;1.15;;;;;;;4.26;74.72;100361.47;4857706;29;20022;-76
2021/01/02 02:33:57;;;;;;;1.67;0.95;;;;;;;4.28;74.78;100362.09;4849328;29;20037;-77
2021/01/02 02:36:24;;;;;;;0.73;0.73;;;;;;;4.22;74.65;100363.00;4857097;29;20051;-76
2021/01/02 02:38:50;;;;;;;1.10;0.68;;;;;;;4.21;74.54;100361.31;4843738;29;20033;-76
2021/01/02 02:41:19;;;;;;;0.77;0.70;;;;;;;4.18;74.50;100364.50;4854506;29;20053;-78
2021/01/02 02:43:48;;;;;;;3.15;0.93;;;;;;;4.14;74.98;100361.38;4849398;29;20076;-77
2021/01/02 02:46:16;;;;;;;0.98;0.57;;;;;;;4.15;74.71;100365.75;4872711;29;20090;-77
2021/01/02 02:48:44;;;;;;;0.85;0.47;;;;;;;4.15;75.12;100364.94;4848959;29;20034;-77
2021/01/02 02:51:12;;;;;;;0.75;0.50;;;;;;;4.18;74.62;100370.72;4850665;29;20061;-77
2021/01/02 02:53:38;;;;;;;0.73;0.70;;;;;;;4.18;75.13;100364.50;4853746;29;20037;-79
2021/01/02 02:56:04;;;;;;;0.88;0.88;;;;;;;4.18;74.55;100370.72;4854928;29;20045;-77
2021/01/02 02:58:30;;;;;;;0.80;0.60;;;;;;;4.14;75.01;100361.38;4867947;29;20065;-78
2021/01/02 03:00:56;;;;;;;0.70;0.68;;;;;;;4.13;74.51;100358.91;4865647;29;20372;-77
2021/01/02 03:03:22;;;;;;;2.60;0.57;;;;;;;4.17;75.00;100369.06;4851377;29;20108;-78
2021/01/02 03:05:49;;;;;;;0.80;0.80;;;;;;;4.17;74.98;100362.81;4874688;29;20034;-79
2021/01/02 03:08:15;;;;;;;1.13;0.40;;;;;;;4.16;74.77;100372.84;4878071;29;20192;-79
2021/01/02 03:10:43;;;;;;;2.67;0.70;;;;;;;4.14;74.38;100368.69;4864721;29;20120;-78
2021/01/02 03:13:09;;;;;;;1.58;0.73;;;;;;;4.11;74.83;100363.72;4844355;29;20049;-78
2021/01/02 03:15:40;;;;;;;0.68;0.43;;;;;;;4.13;75.18;100358.91;4855306;29;20138;-77
2021/01/02 03:18:06;;;;;;;1.02;0.95;;;;;;;4.13;74.38;100361.63;4858354;29;20034;-77
2021/01/02 03:20:31;;;;;;;1.10;1.00;;;;;;;4.09;74.33;100360.41;4868220;29;20398;-76
2021/01/02 03:22:57;;;;;;;4.18;0.77;;;;;;;3.98;74.70;100351.97;4850404;29;21744;-78
2021/01/02 03:25:22;;;;;;;1.27;0.82;;;;;;;3.93;74.98;100356.41;4856870;29;20038;-78
2021/01/02 03:27:52;;;;;;;0.50;0.50;;;;;;;3.84;75.08;100358.56;4826797;29;20090;-77
2021/01/02 03:30:18;;;;;;;0.50;0.50;;;;;;;3.76;74.58;100358.88;4844189;29;20557;-78
2021/01/02 03:32:43;;;;;;;0.75;0.75;;;;;;;3.70;75.29;100357.88;4858864;29;20112;-77
2021/01/02 03:35:12;;;;;;;0.43;0.43;;;;;;;3.63;74.57;100363.34;4853862;29;20064;-78
2021/01/02 03:37:39;;;;;;;0.77;0.77;;;;;;;3.52;74.99;100360.53;4860470;29;20377;-78
2021/01/02 03:40:09;;;;;;;1.55;0.60;;;;;;;3.40;74.31;100371.25;4838645;29;20057;-75
2021/01/02 03:42:46;;;;;;;0.38;0.38;;;;;;;3.24;74.62;100365.34;4841664;29;20073;-75
2021/01/02 03:45:14;;;;;;;0.40;0.40;;;;;;;3.09;75.40;100352.13;4873595;29;20046;-75
2021/01/02 03:47:44;;;;;;;0.77;0.40;;;;;;;3.04;75.12;100370.03;4868832;29;20033;-76
2021/01/02 03:50:09;;;;;;;1.35;0.77;;;;;;;2.99;76.19;100372.56;4850476;29;20430;-75
2021/01/02 03:52:36;;;;;;;0.43;0.43;;;;;;;2.95;76.39;100372.19;4874969;29;20032;-75
2021/01/02 03:55:03;;;;;;;0.77;0.77;;;;;;;2.93;75.83;100380.47;4849937;29;20026;-75
2021/01/02 03:57:28;;;;;;;4.05;0.80;;;;;;;2.88;75.82;100366.00;4861735;29;20021;-75
2021/01/02 03:59:54;;;;;;;1.02;0.40;;;;;;;2.84;75.73;100370.97;4844390;29;20085;-75
2021/01/02 04:02:19;;;;;;;1.95;0.82;;;;;;;2.86;75.88;100377.00;4836662;29;20388;-75
2021/01/02 04:04:45;;;;;;;2.20;1.08;;;;;;;2.84;76.93;100381.78;4844583;29;20026;-78
2021/01/02 04:07:10;;;;;;;0.85;0.75;;;;;;;2.87;76.64;100381.34;4857471;29;20035;-76
2021/01/02 04:09:35;;;;;;;4.15;0.85;;;;;;;2.92;77.05;100378.84;4858874;29;20131;-76
2021/01/02 04:12:01;;;;;;;0.93;0.65;;;;;;;3.01;76.51;100381.25;4850343;29;20037;-75
2021/01/02 04:14:26;;;;;;;1.05;0.90;;;;;;;3.07;76.10;100380.41;4844217;29;20037;-75
2021/01/02 04:16:52;;;;;;;5.25;1.20;;;;;;;3.12;75.44;100377.88;4859415;29;20041;-75
2021/01/02 04:19:17;;;;;;;1.10;1.08;;;;;;;3.16;76.34;100383.69;4860359;29;20029;-76
2021/01/02 04:21:45;;;;;;;3.33;1.45;;;;;;;3.15;75.79;100382.84;4852160;29;20044;-74
2021/01/02 04:24:11;;;;;;;1.05;0.82;;;;;;;3.13;75.33;100383.06;4863702;29;20034;-75
2021/01/02 04:26:36;;;;;;;0.98;0.98;;;;;;;3.18;76.11;100381.59;4854669;29;20037;-75
2021/01/02 04:29:01;;;;;;;0.50;0.50;;;;;;;3.17;75.52;100394.28;4854233;29;20033;-75
2021/01/02 04:31:38;;;;;;;1.63;1.10;;;;;;;3.19;76.17;100394.06;4863840;29;20372;-75
2021/01/02 04:34:05;;;;;;;1.13;0.60;;;;;;;3.15;74.92;100390.94;4877104;29;20563;-75
2021/01/02 04:36:31;;;;;;;1.90;0.73;;;;;;;3.12;75.52;100383.28;4849629;29;20388;-75
2021/01/02 04:38:56;;;;;;;1.42;0.98;;;;;;;3.15;76.04;100393.66;4859396;29;20022;-75
2021/01/02 04:41:22;;;;;;;7.72;1.05;;;;;;;3.14;76.09;100392.03;4859323;29;20573;-75
2021/01/02 04:43:49;;;;;;;0.63;0.63;;;;;;;3.14;76.09;100392.03;4845036;29;20026;-75
2021/01/02 04:46:15;;;;;;;0.63;0.60;;;;;;;3.11;74.79;100387.03;4855620;29;20113;-74
2021/01/02 04:48:42;;;;;;;0.73;0.73;;;;;;;3.07;75.46;100380.41;4854485;29;20041;-75
2021/01/02 04:51:09;;;;;;;1.15;0.80;;;;;;;3.03;76.05;100384.59;4859973;29;20082;-74
2021/01/02 04:53:35;;;;;;;0.75;0.75;;;;;;;2.97;75.95;100381.69;4859736;29;20576;-75
2021/01/02 04:56:03;;;;;;;2.17;0.63;;;;;;;2.93;75.42;100385.88;4854796;29;20097;-75
2021/01/02 04:58:31;;;;;;;0.57;0.43;;;;;;;2.84;76.23;100370.97;4855797;29;20030;-76
2021/01/02 05:00:57;;;;;;;0.95;0.68;;;;;;;2.84;75.63;100379.09;4874156;29;20089;-76
2021/01/02 05:03:31;;;;;;;0.85;0.47;;;;;;;2.85;76.43;100371.78;4863692;29;20025;-76
2021/01/02 05:05:59;;;;;;;0.40;0.40;;;;;;;2.75;75.88;100364.19;4880853;29;20029;-77
2021/01/02 05:08:24;;;;;;;0.38;0.38;;;;;;;2.79;76.27;100378.91;4863696;29;20050;-77
2021/01/02 05:11:03;;;;;;;0.73;0.57;;;;;;;2.80;75.47;100377.84;4838469;29;20105;-77
2021/01/02 05:13:32;;;;;;;1.50;0.70;;;;;;;2.65;75.47;100366.53;4866524;29;20048;-76
2021/01/02 05:16:18;;;;;;;0.40;0.40;;;;;;;2.72;75.74;100381.63;4865645;29;20117;-77
2021/01/02 05:18:58;;;;;;;;;;;;;;;2.73;76.52;100385.16;4864804;29;20034;-77
2021/01/02 05:21:28;;;;;;;0.65;0.50;;;;;;;2.69;76.01;100386.66;4877648;29;19916;-77
2021/01/02 05:24:10;;;;;;;0.85;0.47;;;;;;;2.69;77.04;100386.66;4859565;29;20428;-79
2021/01/02 05:26:41;;;;;;;1.23;0.60;;;;;;;2.68;77.11;100388.50;4858980;29;20083;-77
2021/01/02 05:29:28;;;;;;;0.65;0.43;;;;;;;2.77;75.64;100397.19;4863676;29;20041;-76
2021/01/02 05:31:59;;;;;;;0.60;0.50;;;;;;;2.79;76.31;100398.63;4862240;29;20085;-76
2021/01/02 05:34:31;;;;;;;0.30;0.30;;;;;;;2.84;76.02;100389.88;4861759;29;21725;-77
2021/01/02 05:37:07;;;;;;;3.65;0.60;;;;;;;2.91;75.58;100398.78;4865230;29;20029;-77
2021/01/02 05:39:49;;;;;;;1.20;0.50;;;;;;;2.92;76.60;100395.03;4853199;29;20041;-76
2021/01/02 05:42:16;;;;;;;0.45;0.45;;;;;;;3.01;76.46;100413.69;4862047;29;20033;-77
2021/01/02 05:44:42;;;;;;;0.50;0.50;;;;;;;2.97;76.18;100392.50;4873474;29;20060;-77
2021/01/02 05:47:20;;;;;;;1.05;0.40;;;;;;;3.04;76.28;100399.75;4862883;29;20065;-77
2021/01/02 05:49:47;;;;;;;2.17;0.82;;;;;;;3.14;75.52;100402.81;4868872;29;20044;-76
2021/01/02 05:52:15;;;;;;;0.20;0.20;;;;;;;3.03;76.23;100395.41;4867231;29;20046;-76
2021/01/02 05:54:47;;;;;;;1.52;0.40;;;;;;;3.18;75.14;100409.44;4861047;29;20085;-79
2021/01/02 05:57:14;;;;;;;0.55;0.38;;;;;;;3.11;76.40;100387.88;4858902;29;20037;-79
2021/01/02 05:59:42;;;;;;;3.83;0.80;;;;;;;3.20;75.57;100401.94;4879704;29;20392;-79
2021/01/02 06:02:25;;;;;;;0.43;0.30;;;;;;;3.23;75.08;100412.31;4862447;29;20041;-79
2021/01/02 06:05:05;;;;;;;2.08;0.60;;;;;;;3.23;76.02;100412.31;4833273;29;20038;-79
2021/01/02 06:07:50;;;;;;;0.40;0.40;;;;;;;3.22;75.72;100416.06;4856428;29;20054;-79
2021/01/02 06:10:16;;;;;;;0.30;0.30;;;;;;;3.22;75.77;100416.06;4872816;29;20572;-79
2021/01/02 06:12:43;;;;;;;0.55;0.55;;;;;;;3.31;74.88;100428.28;4859872;29;20468;-80
2021/01/02 06:15:12;;;;;;;0.63;0.50;;;;;;;3.31;75.30;100425.59;4858683;29;20094;-79
2021/01/02 06:17:41;;;;;;;1.67;1.52;;;;;;;3.34;74.61;100434.28;4858425;29;20025;-79
2021/01/02 06:20:11;;;;;;;0.43;0.43;;;;;;;3.43;75.05;100441.09;4854325;29;20471;-77
2021/01/02 06:22:41;;;;;;;0.75;0.50;;;;;;;3.40;74.91;100439.66;4865972;29;20060;-77
2021/01/02 06:25:09;;;;;;;0.65;0.50;;;;;;;3.48;74.23;100441.28;4864167;29;20037;-78
2021/01/02 06:27:41;;;;;;;0.60;0.32;;;;;;;3.50;74.86;100444.56;4872663;29;20037;-78
2021/01/02 06:30:07;;;;;;;0.28;0.28;;;;;;;3.55;74.69;100447.47;4885029;29;20033;-77
2021/01/02 06:32:32;;;;;;;1.52;0.43;;;;;;;3.54;74.18;100445.78;4867017;29;20026;-79
2021/01/02 06:35:10;;;;;;;0.30;0.30;;;;;;;3.60;73.90;100450.31;4846217;29;20034;-77
2021/01/02 06:37:48;;;;;;;0.20;0.20;;;;;;;3.59;74.15;100454.09;4874779;29;20036;-77
2021/01/02 06:40:33;;;;;;;0.40;0.40;;;;;;;3.61;74.58;100452.00;4856464;29;20510;-78
2021/01/02 06:43:03;;;;;;;0.40;0.30;;;;;;;3.57;74.26;100464.28;4865910;29;20022;-76
2021/01/02 06:45:35;;;;;;;0.30;0.30;;;;;;;3.57;74.08;100469.69;4854006;29;20037;-76
2021/01/02 06:48:12;;;;;;;0.30;0.30;;;;;;;3.57;74.41;100472.41;4868543;29;20025;-77
2021/01/02 06:50:38;;;;;;;0.30;0.30;;;;;;;3.57;73.72;100477.00;4872698;29;20040;-75
2021/01/02 06:53:22;;;;;;;1.33;0.60;;;;;;;3.60;74.38;100477.38;4837455;29;20037;-77
2021/01/02 06:56:07;;;;;;;0.32;0.32;;;;;;;3.57;74.15;100477.00;4866694;29;20426;-76
2021/01/02 06:58:54;;;;;;;0.30;0.30;;;;;;;3.53;74.35;100475.75;4849276;29;20056;-77
2021/01/02 07:01:22;;;;;;;1.48;0.43;;;;;;;3.53;74.12;100476.56;4863478;29;20032;-76
2021/01/02 07:03:49;;;;;;;0.40;0.40;;;;;;;3.52;74.42;100479.50;4871842;29;20033;-76
2021/01/02 07:06:23;;;;;;;0.50;0.50;;;;;;;3.53;73.50;100476.56;4852342;29;20030;-78
2021/01/02 07:08:57;;;;;;;0.50;0.40;;;;;;;3.51;73.66;100481.38;4857677;29;20041;-77
2021/01/02 07:11:43;;;;;;;0.63;0.40;;;;;;;3.49;74.45;100487.00;4855299;29;20029;-77
2021/01/02 07:14:12;;;;;;;0.47;0.38;;;;;;;3.50;74.43;100482.44;4857024;29;20046;-77
2021/01/02 07:16:42;;;;;;;0.70;0.55;;;;;;;3.49;73.67;100491.59;4856992;29;20026;-76
2021/01/02 07:19:31;;;;;;;1.15;0.65;;;;;;;3.51;73.68;100494.91;4857916;29;20477;-77
2021/01/02 07:21:57;;;;;;;0.40;0.40;;;;;;;3.51;74.13;100497.63;4848245;29;20087;-78
2021/01/02 07:24:45;;;;;;;0.77;0.60;;;;;;;3.49;73.09;100492.41;4877699;29;20066;-77
2021/01/02 07:27:19;;;;;;;0.22;0.22;;;;;;;3.50;73.95;100482.44;4864909;29;20124;-79
2021/01/02 07:29:50;;;;;;;1.58;0.35;;;;;;;3.48;73.18;100487.22;4866678;29;20037;-78
2021/01/02 07:32:21;;;;;;;1.65;0.63;;;;;;;3.48;73.15;100484.53;4868232;29;20120;-77
2021/01/02 07:34:51;;;;;;;0.40;0.32;;;;;;;3.49;74.05;100497.00;4860019;29;20025;-78
2021/01/02 07:37:23;;;;;;;0.40;0.40;;;;;;;3.48;73.66;100487.22;4858063;29;20053;-77
2021/01/02 07:40:13;;;;;;;2.83;1.10;;;;;;;3.48;73.01;100479.13;4866231;29;20029;-77
2021/01/02 07:42:58;;;;;;;0.52;0.52;;;;;;;3.47;73.68;100485.56;4821989;29;20049;-77
2021/01/02 07:45:28;;;;;;;0.47;0.47;;;;;;;3.43;73.34;100487.03;4835866;29;20029;-76
2021/01/02 07:47:54;;;;;;;2.45;0.65;;;;;;;3.44;73.68;100488.72;4856183;29;20021;-78
2021/01/02 07:50:21;;;;;;;5.38;0.88;;;;;;;3.38;72.71;100489.59;4846633;29;20117;-79
2021/01/02 07:52:55;;;;;;;0.70;0.50;;;;;;;3.31;73.51;100485.06;4856474;29;20043;-80
2021/01/02 07:55:31;;;;;;;2.80;0.30;;;;;;;3.36;73.14;100488.94;4856266;29;20029;-76
2021/01/02 07:57:57;;;;;;;0.38;0.38;;;;;;;3.34;73.12;100488.34;4849687;29;20025;-79
2021/01/02 08:00:43;;;;;;;2.47;0.50;;;;;;;3.29;73.26;100487.13;4871431;29;20569;-77
2021/01/02 08:03:12;;;;;;;2.33;0.65;;;;;;;3.26;72.92;100476.75;4874091;29;20033;-77
2021/01/02 08:05:45;;;;;;;0.60;0.50;;;;;;;3.23;73.01;100488.00;4863963;29;20025;-77
2021/01/02 08:08:18;;;;;;;1.15;0.50;;;;;;;3.25;73.94;100487.78;4860811;29;20048;-78
2021/01/02 08:10:44;;;;;;;0.75;0.60;;;;;;;3.24;73.05;100489.66;4859994;29;20061;-79
2021/01/02 08:13:18;;;;;;;0.63;0.63;;;;;;;3.21;73.14;100484.66;4863609;29;20056;-79
2021/01/02 08:15:43;;;;;;;1.08;0.60;;;;;;;3.34;73.55;100502.69;4863102;29;20086;-85
2021/01/02 08:18:10;;;;;;;0.60;0.50;;;;;;;3.29;73.45;100492.53;4838591;29;20034;-77
2021/01/02 08:20:36;;;;;;;2.47;0.35;;;;;;;3.27;73.39;100494.63;4842525;29;20030;-75
2021/01/02 08:23:10;;;;;;;0.50;0.50;;;;;;;3.28;73.71;100493.56;4852517;29;20042;-75
2021/01/02 08:25:36;;;;;;;0.90;0.50;;;;;;;3.23;72.64;100501.50;4863301;29;20074;-72
2021/01/02 08:28:09;;;;;;;1.67;0.50;;;;;;;3.11;73.01;100492.41;4853438;29;20033;-78
2021/01/02 08:30:35;;;;;;;0.93;0.90;;;;;;;3.11;73.50;100495.09;4868138;29;20053;-78
2021/01/02 08:33:01;;;;;;;0.60;0.60;;;;;;;3.01;73.54;100500.13;4863820;29;20112;-79
2021/01/02 08:35:38;;;;;;;0.40;0.40;;;;;;;2.96;73.31;100504.34;4866191;29;20041;-80
2021/01/02 08:38:06;;;;;;;0.82;0.80;;;;;;;2.92;73.33;100503.09;4861749;29;20065;-78
2021/01/02 08:40:39;;;;;;;0.50;0.50;;;;;;;2.79;73.38;100489.66;4862705;29;20038;-78
2021/01/02 08:43:29;;;;;;;0.95;0.60;;;;;;;2.84;73.37;100499.81;4859702;29;20021;-76
2021/01/02 08:46:04;;;;;;;0.73;0.43;;;;;;;2.88;73.19;100501.88;4871146;29;20026;-77
2021/01/02 08:48:32;;;;;;;0.50;0.50;;;;;;;3.00;73.22;100507.44;4869249;29;20032;-77
2021/01/02 08:50:58;;;;;;;0.70;0.68;;;;;;;2.99;73.46;100502.25;4847870;29;20052;-81
2021/01/02 08:53:27;;;;;;;0.75;0.75;;;;;;;3.02;72.78;100507.22;4859382;29;20061;-77
2021/01/02 08:55:53;;;;;;;0.50;0.50;;;;;;;2.85;73.25;100491.50;4864965;29;20038;-77
2021/01/02 08:58:34;;;;;;;1.50;0.93;;;;;;;2.86;73.00;100492.31;4858639;29;20125;-77
2021/01/02 09:01:00;;;;;;;0.63;0.63;;;;;;;2.77;73.50;100483.63;4864067;29;20627;-78
2021/01/02 09:03:28;;;;;;;0.55;0.50;;;;;;;2.90;73.02;100498.94;4856411;29;20102;-78
2021/01/02 09:05:54;;;;;;;1.00;0.82;;;;;;;2.83;73.25;100498.97;4848554;29;20030;-78
2021/01/02 09:08:23;;;;;;;2.70;0.75;;;;;;;2.73;73.01;100490.47;4838819;29;20061;-77
2021/01/02 09:10:56;;;;;;;0.65;0.65;;;;;;;2.65;73.94;100485.31;4861081;29;20033;-77
2021/01/02 09:13:27;;;;;;;1.85;0.68;;;;;;;2.61;74.26;100507.34;4877943;29;20025;-75
2021/01/02 09:16:03;;;;;;;2.38;1.05;;;;;;;2.48;74.10;100490.34;4859761;29;20033;-78
2021/01/02 09:18:32;;;;;;;2.15;0.68;;;;;;;2.47;73.26;100510.28;4858872;29;20021;-78
2021/01/02 09:21:19;;;;;;;0.80;0.80;;;;;;;2.40;74.57;100513.00;4879621;29;20045;-77
2021/01/02 09:23:45;;;;;;;1.25;1.17;;;;;;;2.34;74.65;100511.97;4858743;29;20032;-77
2021/01/02 09:26:29;;;;;;;0.90;0.90;;;;;;;2.21;74.09;100498.50;4859272;29;20029;-78
2021/01/02 09:28:57;;;;;;;0.93;0.93;;;;;;;2.28;74.86;100502.00;4864491;29;20037;-78
2021/01/02 09:31:23;;;;;;;1.08;1.00;;;;;;;2.18;74.84;100494.34;4866106;29;20044;-78
2021/01/02 09:33:51;;;;;;;1.67;0.90;;;;;;;2.29;75.37;100514.44;4853355;29;20047;-78
2021/01/02 09:36:19;;;;;;;1.10;1.00;;;;;;;2.30;75.22;100515.28;4859815;29;20025;-79
2021/01/02 09:38:46;;;;;;;2.25;1.30;;;;;;;2.36;75.85;100520.66;4863165;29;20030;-78
2021/01/02 09:41:17;;;;;;;0.90;0.90;;;;;;;2.38;75.40;100509.66;4865241;29;20049;-77
2021/01/02 09:43:45;;;;;;;2.20;1.20;;;;;;;2.72;76.16;100518.53;4864423;29;20044;-78
2021/01/02 09:46:17;;;;;;;1.38;1.38;;;;;;;3.82;75.58;100518.41;4860926;29;20045;-78
2021/01/02 09:48:44;;;;;;;1.95;0.98;;;;;;;5.23;73.79;100517.84;4865028;29;20029;-76
2021/01/02 09:51:10;;;;;;;1.08;1.08;;;;;;;6.51;69.85;100521.38;4865699;29;20044;-79
2021/01/02 09:53:35;;;;;;;3.75;0.82;;;;;;;7.62;68.78;100525.81;4877568;29;20034;-78
2021/01/02 09:56:01;;;;;;;1.02;1.02;;;;;;;8.73;66.65;100536.13;4864143;29;20093;-76
2021/01/02 09:58:26;;;;;;;2.25;1.25;;;;;;;9.78;62.80;100548.00;4848215;29;20125;-76
2021/01/02 10:00:52;;;;;;;0.60;0.40;;;;;;;10.45;62.08;100537.69;4864251;29;20045;-74
2021/01/02 10:03:17;;;;;;;0.50;0.50;;;;;;;11.27;59.82;100527.22;4846310;29;20054;-76
2021/01/02 10:05:43;;;;;;;0.40;0.40;;;;;;;11.87;58.33;100535.00;4859123;29;20045;-76
2021/01/02 10:08:08;;;;;;;0.10;0.10;;;;;;;12.60;57.78;100544.94;4847762;29;20441;-74
2021/01/02 10:10:33;;;;;;;0.80;0.80;;;;;;;13.36;56.31;100547.72;4857905;29;20469;-76
2021/01/02 10:12:59;;;;;;;0.30;0.30;;;;;;;13.93;52.50;100542.72;4851694;29;20545;-77
2021/01/02 10:15:24;;;;;;;0.40;0.32;;;;;;;14.16;50.84;100554.94;4843655;29;20029;-78
2021/01/02 10:17:50;;;;;;;0.20;0.20;;;;;;;14.49;49.05;100564.28;4854383;29;20508;-77
2021/01/02 10:20:16;;;;;;;0.50;0.30;;;;;;;14.84;50.25;100565.09;4857896;29;20475;-77
2021/01/02 10:22:41;;;;;;;0.52;0.32;;;;;;;15.29;48.75;100558.56;4854526;29;20041;-77
2021/01/02 10:25:08;;;;;;;0.32;0.32;;;;;;;15.69;47.64;100553.59;4851405;29;20397;-78
2021/01/02 10:27:33;;;;;;;0.43;0.30;;;;;;;16.13;47.39;100555.16;4849792;29;20438;-75
2021/01/02 10:29:59;;;;;;;0.32;0.30;;;;;;;16.62;46.15;100560.44;4859689;29;20085;-76
2021/01/02 10:32:27;;;;;;;1.48;0.30;;;;;;;17.12;44.33;100557.06;4853412;29;20465;-77
2021/01/02 10:34:53;;;;;;;1.10;0.20;;;;;;;17.44;43.74;100547.81;4858706;29;20041;-77
2021/01/02 10:37:21;;;;;;;1.67;0.20;;;;;;;17.84;43.83;100550.78;4846412;29;20334;-77
2021/01/02 10:39:46;;;;;;;0.20;0.10;;;;;;;18.39;43.17;100543.44;4858511;29;20497;-77
2021/01/02 10:42:16;;;;;;;0.30;0.10;;;;;;;18.92;42.85;100545.34;4851220;29;20267;-76
2021/01/02 10:44:44;;;;;;;0.10;0.10;;;;;;;19.28;40.29;100540.78;4855468;29;20033;-77
2021/01/02 10:47:10;;;;;;;0.08;0.08;;;;;;;19.25;41.05;100530.34;4856148;29;20430;-78
2021/01/02 10:49:35;;;;;;;0.63;0.10;;;;;;;19.49;40.48;100533.47;4845487;29;20030;-78
2021/01/02 10:52:00;;;;;;;0.45;0.30;;;;;;;19.74;40.12;100524.69;4846065;29;20037;-79
2021/01/02 10:54:26;;;;;;;0.20;0.20;;;;;;;20.20;38.75;100526.00;4856545;29;20029;-77
2021/01/02 10:56:53;;;;;;;0.20;0.10;;;;;;;20.66;39.41;100520.81;4862405;29;20841;-78
2021/01/02 10:59:21;;;;;;;0.00;0.00;;;;;;;21.28;38.78;100516.66;4859235;29;21895;-78
2021/01/02 11:01:52;;;;;;;0.20;0.10;;;;;;;21.95;39.06;100519.63;4849981;29;20113;-76
2021/01/02 11:04:19;;;;;;;0.00;0.00;;;;;;;22.51;38.54;100518.47;4860305;29;20101;-78
2021/01/02 11:06:49;;;;;;;0.10;0.10;;;;;;;23.01;36.34;100514.56;4857293;29;20090;-77
2021/01/02 11:09:15;;;;;;;0.10;0.10;;;;;;;23.13;33.62;100505.41;4873415;29;20053;-79
2021/01/02 11:11:41;;;;;;;0.10;0.10;;;;;;;23.24;34.00;100503.75;4838776;29;20396;-78
2021/01/02 11:14:08;;;;;;;0.22;0.22;;;;;;;23.48;34.03;100507.69;4862186;29;20121;-79
2021/01/02 11:16:36;;;;;;;0.57;0.20;;;;;;;23.77;31.09;100503.78;4841385;29;20381;-77
2021/01/02 11:19:03;;;;;;;0.10;0.10;;;;;;;23.75;31.78;100496.94;4854429;29;20630;-79
2021/01/02 11:21:28;;;;;;;0.10;0.10;;;;;;;24.04;31.92;100493.00;4862485;29;20084;-77
2021/01/02 11:23:54;;;;;;;0.10;0.10;;;;;;;24.40;30.77;100494.00;4850874;29;20033;-78
2021/01/02 11:26:20;;;;;;;0.25;0.08;;;;;;;24.81;31.26;100491.88;4858414;29;20036;-78
2021/01/02 11:28:46;;;;;;;0.30;0.20;;;;;;;25.33;28.96;100494.69;4844628;29;20481;-78
2021/01/02 11:31:13;;;;;;;1.98;0.17;;;;;;;25.56;27.47;100481.63;4854088;29;20073;-78
2021/01/02 11:33:38;;;;;;;0.28;0.22;;;;;;;25.59;27.10;100482.88;4877078;29;20037;-79
2021/01/02 11:36:04;;;;;;;0.28;0.20;;;;;;;25.37;27.00;100474.00;4837621;29;20037;-79
2021/01/02 11:38:30;;;;;;;1.15;0.20;;;;;;;25.39;27.93;100460.47;4845042;29;20486;-78
2021/01/02 11:40:55;;;;;;;0.15;0.10;;;;;;;25.77;27.46;100452.44;4862213;29;20066;-77
2021/01/02 11:43:21;;;;;;;0.28;0.10;;;;;;;26.19;28.09;100448.88;4872511;29;20029;-77
2021/01/02 11:45:47;;;;;;;0.03;0.03;;;;;;;26.39;28.50;100455.25;4862453;29;20042;-76
2021/01/02 11:48:14;;;;;;;0.10;0.03;;;;;;;26.42;27.92;100454.50;4862942;29;20089;-77
2021/01/02 11:50:40;;;;;;;0.20;0.10;;;;;;;26.50;27.21;100454.63;4864166;29;20120;-78